Olympic Scout — WDD7216 — position and weather

sailwx.info

Track history (hours):
 
Tides and Currents Weather Stations Pressure Air Temp Water Temp Dewpoint Dewpoint Depression Visibility Wind Speed Wind Dir Waves Ship Positions

Olympic Scout

Owner: Harley Marine Services, Inc., Seattle, WA. More information available from US FCC via Universal Licensing System and Coast Guard Vessel Documentation Center.

Last reported at 2017-Nov-17 22:48 UTC. Time now 2017-Nov-17 23:14 UTC.
Position N 47°16' W 122°24'.

Length 31 m; draft 0.3 m.

Type: Tug. MMSI: 366998440.

Date/timePositionNaut miles runAvg speedWind from/ knotsBaromVisibWave heightAir tempDewpointWater temp
2017-Nov-17 22:48N 47°16' W 122°24'1 1.7
2017-Nov-17 22:25N 47°17' W 122°25'0 0.0
2017-Nov-17 13:39N 47°17' W 122°24'0 2.4
2017-Nov-17 13:30N 47°17' W 122°25'0 0.7
2017-Nov-17 12:58N 47°17' W 122°25'0 0.1
2017-Nov-17 12:28N 47°17' W 122°25'0 0.1
2017-Nov-17 11:58N 47°17' W 122°25'0 0.0
2017-Nov-17 11:28N 47°17' W 122°25'0 0.0
2017-Nov-17 10:58N 47°17' W 122°25'0 0.0
2017-Nov-17 10:25N 47°17' W 122°25'0 0.0
2017-Nov-17 09:58N 47°17' W 122°25'0 0.0
2017-Nov-17 09:28N 47°17' W 122°25'0 0.0
2017-Nov-17 08:55N 47°17' W 122°25'0 0.0
2017-Nov-17 08:22N 47°17' W 122°25'0 0.0
2017-Nov-17 07:55N 47°17' W 122°25'0 0.0
2017-Nov-17 07:25N 47°17' W 122°25'0 0.0
2017-Nov-17 06:49N 47°17' W 122°25'0 0.0
2017-Nov-17 06:25N 47°17' W 122°25'0 0.0
2017-Nov-17 05:43N 47°17' W 122°25'0 0.0
2017-Nov-17 05:25N 47°17' W 122°25'0 0.0
2017-Nov-17 04:58N 47°17' W 122°25'0 0.0
2017-Nov-17 04:25N 47°17' W 122°25'0 0.9
2017-Nov-17 04:00N 47°17' W 122°25'1 1.8
2017-Nov-17 03:29N 47°17' W 122°26'2 4.3
2017-Nov-17 03:00N 47°19' W 122°28'3 5.2
2017-Nov-17 02:30N 47°21' W 122°25'3 5.1
2017-Nov-17 02:00N 47°23' W 122°22'2 4.5
2017-Nov-17 01:30N 47°25' W 122°23'3 5.7
2017-Nov-17 01:00N 47°28' W 122°25'3 5.6
2017-Nov-17 00:30N 47°30' W 122°26'3 5.6
2017-Nov-17 00:00N 47°33' W 122°27'3 5.3
2017-Nov-16 23:30N 47°36' W 122°28'3 5.4
2017-Nov-16 23:00N 47°38' W 122°28'3 5.3
2017-Nov-16 22:30N 47°41' W 122°28'3 5.4
2017-Nov-16 22:00N 47°44' W 122°28'3 5.7
2017-Nov-16 21:30N 47°46' W 122°27'3 5.7
2017-Nov-16 21:00N 47°49' W 122°28'3 5.8
2017-Nov-16 20:30N 47°52' W 122°29'3 5.7
2017-Nov-16 20:00N 47°55' W 122°30'3 6.4
2017-Nov-16 19:30N 47°57' W 122°34'26 4.6
2017-Nov-16 13:51N 48°21' W 122°46'2 5.6
2017-Nov-16 13:30N 48°23' W 122°46'3 5.8
2017-Nov-16 12:59N 48°26' W 122°45'2 5.1
2017-Nov-16 12:30N 48°29' W 122°45'2 4.4
2017-Nov-16 12:00N 48°31' W 122°45'2 4.4
2017-Nov-16 11:30N 48°33' W 122°45'2 3.5
2017-Nov-16 11:00N 48°35' W 122°45'1 2.9
2017-Nov-16 10:30N 48°36' W 122°46'2 3.5
2017-Nov-16 10:00N 48°38' W 122°45'2 3.7
2017-Nov-16 09:30N 48°39' W 122°44'2 3.4
2017-Nov-16 09:00N 48°41' W 122°44'2 4.2
2017-Nov-16 08:25N 48°43' W 122°46'3 4.6
2017-Nov-16 07:43N 48°47' W 122°45'1 0.1
2017-Nov-15 21:00N 48°48' W 122°45'4 8.3
2017-Nov-15 20:28N 48°43' W 122°44'4 8.4
2017-Nov-15 20:00N 48°40' W 122°41'4 7.8
2017-Nov-15 19:30N 48°37' W 122°37'4 8.7
2017-Nov-15 19:00N 48°33' W 122°34'2 3.5
2017-Nov-15 18:30N 48°31' W 122°35'1 1.1
2017-Nov-15 17:51N 48°31' W 122°36'0 0.0
2017-Nov-15 17:29N 48°31' W 122°36'0 0.0
2017-Nov-15 16:59N 48°31' W 122°36'0 0.0
2017-Nov-15 16:29N 48°31' W 122°36'0 0.0
2017-Nov-15 15:59N 48°31' W 122°36'0 0.0
2017-Nov-15 15:29N 48°31' W 122°36'0 0.0
2017-Nov-15 14:59N 48°31' W 122°36'0 0.0
2017-Nov-15 14:29N 48°31' W 122°36'0 0.0
2017-Nov-15 13:59N 48°31' W 122°36'0 0.0
2017-Nov-15 13:29N 48°31' W 122°36'0 0.0
2017-Nov-15 12:59N 48°31' W 122°36'0 0.0
2017-Nov-15 12:29N 48°31' W 122°36'0 0.0
2017-Nov-15 11:59N 48°31' W 122°36'0 0.0
2017-Nov-15 11:29N 48°31' W 122°36'0 0.0
2017-Nov-15 10:59N 48°31' W 122°36'0 0.0
2017-Nov-15 10:23N 48°31' W 122°36'0 0.0
2017-Nov-15 09:59N 48°31' W 122°36'0 0.0
2017-Nov-15 09:29N 48°31' W 122°36'0 0.0
2017-Nov-15 08:59N 48°31' W 122°36'0 0.0
2017-Nov-15 08:29N 48°31' W 122°36'0 0.0
2017-Nov-15 07:47N 48°31' W 122°36'0 0.0
2017-Nov-15 07:29N 48°31' W 122°36'0 0.0
2017-Nov-15 06:59N 48°31' W 122°36'0 0.0
2017-Nov-15 06:29N 48°31' W 122°36'0 0.0
2017-Nov-15 05:59N 48°31' W 122°36'0 0.0
2017-Nov-15 05:29N 48°31' W 122°36'0 0.0
2017-Nov-15 04:59N 48°31' W 122°36'0 0.0
2017-Nov-15 04:29N 48°31' W 122°36'0 0.0
2017-Nov-15 03:59N 48°31' W 122°36'0 0.0
2017-Nov-15 03:29N 48°31' W 122°36'0 0.0
2017-Nov-15 02:59N 48°31' W 122°36'0 0.0
2017-Nov-15 02:29N 48°31' W 122°36'0 0.0
2017-Nov-15 01:59N 48°31' W 122°36'0 0.0
2017-Nov-15 01:29N 48°31' W 122°36'0 0.0
2017-Nov-15 00:53N 48°31' W 122°36'0 0.0
2017-Nov-15 00:29N 48°31' W 122°36'0 0.0
2017-Nov-14 23:59N 48°31' W 122°36'0 0.0
2017-Nov-14 23:29N 48°31' W 122°36'0 0.0
2017-Nov-14 22:52N 48°31' W 122°36'0 0.0
2017-Nov-14 22:23N 48°31' W 122°36'0 0.0
2017-Nov-14 21:59N 48°31' W 122°36'0 0.0
2017-Nov-14 21:29N 48°31' W 122°36'0 0.0
2017-Nov-14 20:59N 48°31' W 122°36'0 0.0
2017-Nov-14 20:29N 48°31' W 122°36'0 0.0
2017-Nov-14 19:47N 48°31' W 122°36'0 0.0
2017-Nov-14 19:29N 48°31' W 122°36'0 0.0
2017-Nov-14 18:58N 48°31' W 122°36'0 0.0
2017-Nov-14 18:16N 48°31' W 122°36'0 0.0
2017-Nov-14 17:59N 48°31' W 122°36'0 0.0
2017-Nov-14 17:29N 48°31' W 122°36'0 0.4
2017-Nov-14 16:59N 48°32' W 122°36'1 1.5
2017-Nov-14 16:30N 48°31' W 122°37'2 3.6
2017-Nov-14 16:01N 48°31' W 122°40'2 4.8
2017-Nov-14 15:30N 48°31' W 122°36'0 0.0
2017-Nov-14 15:00N 48°31' W 122°36'0 0.0
2017-Nov-14 14:30N 48°31' W 122°36'0 0.0
2017-Nov-14 14:00N 48°31' W 122°36'0 0.0
2017-Nov-14 13:30N 48°31' W 122°36'0 0.0
2017-Nov-14 13:00N 48°31' W 122°36'0 0.0
2017-Nov-14 12:30N 48°31' W 122°36'0 0.0
2017-Nov-14 11:42N 48°31' W 122°36'0 0.0
2017-Nov-14 11:30N 48°31' W 122°36'0 0.0
2017-Nov-14 11:00N 48°31' W 122°36'0 0.0
2017-Nov-14 10:12N 48°31' W 122°36'0 0.0
2017-Nov-14 10:00N 48°31' W 122°36'0 0.0
2017-Nov-14 09:30N 48°31' W 122°36'0 0.0
2017-Nov-14 09:00N 48°31' W 122°36'0 0.0
2017-Nov-14 08:30N 48°31' W 122°36'0 0.0
2017-Nov-14 08:00N 48°31' W 122°36'0 0.0
2017-Nov-14 07:30N 48°31' W 122°36'0 0.0
2017-Nov-14 07:00N 48°31' W 122°36'0 0.0
2017-Nov-14 06:30N 48°31' W 122°36'0 0.0
2017-Nov-14 06:00N 48°31' W 122°36'0 0.0
2017-Nov-14 05:30N 48°31' W 122°36'0 0.0
2017-Nov-14 05:00N 48°31' W 122°36'0 0.0
2017-Nov-14 04:30N 48°31' W 122°36'0 0.0
2017-Nov-14 04:00N 48°31' W 122°36'0 0.0
2017-Nov-14 03:24N 48°31' W 122°36'0 0.0
2017-Nov-14 03:00N 48°31' W 122°36'0 0.0
2017-Nov-14 02:30N 48°31' W 122°36'0 0.0
2017-Nov-14 02:00N 48°31' W 122°36'0 0.0
2017-Nov-14 01:30N 48°31' W 122°36'0 0.0
2017-Nov-14 01:00N 48°31' W 122°36'0 0.0
2017-Nov-14 00:30N 48°31' W 122°36'0 0.0
2017-Nov-14 00:00N 48°31' W 122°36'0 0.0
2017-Nov-13 23:30N 48°31' W 122°36'0 0.0
2017-Nov-13 23:00N 48°31' W 122°36'0 0.0
2017-Nov-13 22:30N 48°31' W 122°36'0 0.0
2017-Nov-13 22:00N 48°31' W 122°36'66 3.3
2017-Nov-13 02:01N 47°26' W 122°23'4 7.2
2017-Nov-13 01:30N 47°23' W 122°21'4 7.1
2017-Nov-13 01:00N 47°20' W 122°24'3 6.3
2017-Nov-13 00:30N 47°18' W 122°27'2 2.9
2017-Nov-12 23:56N 47°17' W 122°25'0 0.1
2017-Nov-12 23:14N 47°17' W 122°25'0 0.0
2017-Nov-12 22:59N 47°17' W 122°25'0 0.0
2017-Nov-12 22:29N 47°17' W 122°25'0 0.0
2017-Nov-12 21:56N 47°17' W 122°25'0 0.0
2017-Nov-12 21:29N 47°17' W 122°25'0 0.1
2017-Nov-12 20:59N 47°17' W 122°25'0 0.0
2017-Nov-12 20:29N 47°17' W 122°25'0 0.1
2017-Nov-12 19:59N 47°17' W 122°25'0 0.0
2017-Nov-12 19:29N 47°17' W 122°25'0 0.0
2017-Nov-12 18:56N 47°17' W 122°25'0 0.0
2017-Nov-12 18:29N 47°17' W 122°25'0 0.1
2017-Nov-12 17:59N 47°17' W 122°25'0 0.0
2017-Nov-12 17:26N 47°17' W 122°25'1 2.6
2017-Nov-12 17:00N 47°17' W 122°26'3 5.1
2017-Nov-12 16:30N 47°20' W 122°28'3 6.6
2017-Nov-12 16:00N 47°22' W 122°24'3 5.5
2017-Nov-12 15:30N 47°24' W 122°23'3 6.4
2017-Nov-12 15:00N 47°27' W 122°25'3 6.4
2017-Nov-12 14:30N 47°30' W 122°26'3 6.3
2017-Nov-12 14:00N 47°33' W 122°27'3 6.3
2017-Nov-12 13:30N 47°36' W 122°24'2 4.2
2017-Nov-12 13:00N 47°36' W 122°21'0 0.5
2017-Nov-12 12:30N 47°35' W 122°21'1 1.7
2017-Nov-12 11:59N 47°34' W 122°21'1 1.7
2017-Nov-12 11:28N 47°35' W 122°21'0 0.0
2017-Nov-12 10:58N 47°35' W 122°21'0 0.0
2017-Nov-12 10:28N 47°35' W 122°21'0 0.0
2017-Nov-12 09:59N 47°35' W 122°21'0 0.0
2017-Nov-12 09:29N 47°35' W 122°21'0 0.0
2017-Nov-12 08:59N 47°35' W 122°21'0 0.0
2017-Nov-12 08:28N 47°35' W 122°21'0 0.0
2017-Nov-12 07:58N 47°35' W 122°21'0 0.0
2017-Nov-12 07:28N 47°35' W 122°21'0 0.1
2017-Nov-12 06:59N 47°35' W 122°21'0 0.6
2017-Nov-12 06:30N 47°36' W 122°21'1 2.3
2017-Nov-12 06:00N 47°35' W 122°21'0 0.3
2017-Nov-12 05:28N 47°34' W 122°21'0 0.0
2017-Nov-12 04:59N 47°34' W 122°21'0 0.0
2017-Nov-12 04:29N 47°34' W 122°21'0 0.0
2017-Nov-12 03:58N 47°34' W 122°21'0 0.0
2017-Nov-12 03:29N 47°34' W 122°21'0 0.0
2017-Nov-12 02:59N 47°34' W 122°21'0 0.0
2017-Nov-12 02:29N 47°34' W 122°21'0 0.0
2017-Nov-12 01:59N 47°34' W 122°21'0 0.0
2017-Nov-12 01:29N 47°34' W 122°21'0 0.0
2017-Nov-12 00:59N 47°34' W 122°21'0 0.0
2017-Nov-12 00:29N 47°34' W 122°21'0 0.0
2017-Nov-11 23:55N 47°34' W 122°21'0 0.0
2017-Nov-11 23:29N 47°34' W 122°21'0 0.0
2017-Nov-11 22:59N 47°34' W 122°21'0 0.0
2017-Nov-11 22:29N 47°34' W 122°21'0 0.0
2017-Nov-11 21:59N 47°34' W 122°21'0 0.0
2017-Nov-11 21:25N 47°34' W 122°21'0 0.0
2017-Nov-11 20:59N 47°34' W 122°21'0 0.1
2017-Nov-11 20:26N 47°34' W 122°21'1 1.2
2017-Nov-11 20:00N 47°35' W 122°21'0 0.0
2017-Nov-11 19:29N 47°35' W 122°21'0 0.0
2017-Nov-11 18:59N 47°35' W 122°21'0 0.0
2017-Nov-11 18:29N 47°35' W 122°21'0 0.0
2017-Nov-11 18:00N 47°35' W 122°21'0 0.0
2017-Nov-11 17:29N 47°35' W 122°21'0 0.0
2017-Nov-11 16:57N 47°35' W 122°21'0 0.0
2017-Nov-11 16:29N 47°35' W 122°21'0 0.0
2017-Nov-11 15:59N 47°35' W 122°21'0 0.0
2017-Nov-11 15:29N 47°35' W 122°21'0 0.0
2017-Nov-11 14:59N 47°35' W 122°21'0 0.0
2017-Nov-11 14:29N 47°35' W 122°21'0 0.0
2017-Nov-11 13:59N 47°35' W 122°21'0 0.0
2017-Nov-11 13:29N 47°35' W 122°21'0 0.0
2017-Nov-11 13:00N 47°35' W 122°21'0 0.1
2017-Nov-11 12:30N 47°35' W 122°21'0 0.1
2017-Nov-11 11:59N 47°35' W 122°21'0 0.0
2017-Nov-11 11:29N 47°35' W 122°21'0 0.0
2017-Nov-11 11:00N 47°35' W 122°21'0 0.0
2017-Nov-11 10:30N 47°35' W 122°21'0 0.0
2017-Nov-11 09:59N 47°35' W 122°21'0 0.0
2017-Nov-11 09:29N 47°35' W 122°21'0 0.0
2017-Nov-11 08:59N 47°35' W 122°21'0 0.0
2017-Nov-11 08:29N 47°35' W 122°21'0 0.0
2017-Nov-11 07:59N 47°35' W 122°21'0 0.0
2017-Nov-11 07:30N 47°35' W 122°21'0 0.0
2017-Nov-11 06:56N 47°35' W 122°21'0 0.0
2017-Nov-11 06:30N 47°35' W 122°21'0 0.0
2017-Nov-11 06:00N 47°35' W 122°21'0 0.0
2017-Nov-11 05:29N 47°35' W 122°21'0 0.0
2017-Nov-11 04:59N 47°35' W 122°21'0 0.0
2017-Nov-11 04:29N 47°35' W 122°21'0 0.0
2017-Nov-11 03:59N 47°35' W 122°21'0 0.0
2017-Nov-11 03:29N 47°35' W 122°21'0 0.0
2017-Nov-11 02:59N 47°35' W 122°21'0 0.0
2017-Nov-11 02:29N 47°35' W 122°21'0 0.0
2017-Nov-11 01:59N 47°35' W 122°21'0 0.0
2017-Nov-11 01:29N 47°35' W 122°21'0 0.0
2017-Nov-11 00:59N 47°35' W 122°21'0 0.0
2017-Nov-11 00:30N 47°35' W 122°21'0 0.0
2017-Nov-10 23:59N 47°35' W 122°21'0 0.0
2017-Nov-10 23:26N 47°35' W 122°21'0 0.0
2017-Nov-10 22:59N 47°35' W 122°21'0 0.0
2017-Nov-10 22:29N 47°35' W 122°21'0 0.0
2017-Nov-10 22:00N 47°35' W 122°21'0 0.0
2017-Nov-10 21:29N 47°35' W 122°21'0 0.0
2017-Nov-10 21:00N 47°35' W 122°21'0 0.0
2017-Nov-10 20:30N 47°35' W 122°21'1 1.5
2017-Nov-10 20:00N 47°36' W 122°21'2 4.5
2017-Nov-10 19:30N 47°36' W 122°24'3 6.0
2017-Nov-10 19:00N 47°33' W 122°26'3 6.7
2017-Nov-10 18:30N 47°30' W 122°25'3 6.5
2017-Nov-10 18:00N 47°27' W 122°24'3 6.5
2017-Nov-10 17:30N 47°24' W 122°21'3 5.4
2017-Nov-10 17:00N 47°21' W 122°23'3 6.4
2017-Nov-10 16:30N 47°19' W 122°27'2 4.8
2017-Nov-10 16:00N 47°17' W 122°26'1 0.7
2017-Nov-10 15:01N 47°17' W 122°25'0 0.2
2017-Nov-10 14:49N 47°17' W 122°25'0 0.1
2017-Nov-10 14:25N 47°17' W 122°25'0 0.0
2017-Nov-10 14:00N 47°17' W 122°25'0 0.0
2017-Nov-10 13:21N 47°17' W 122°25'0 0.1
2017-Nov-10 12:58N 47°17' W 122°25'0 0.1
2017-Nov-10 12:31N 47°17' W 122°25'0 0.1
2017-Nov-10 11:58N 47°17' W 122°25'0 0.1
2017-Nov-10 11:28N 47°17' W 122°25'0 0.0
2017-Nov-10 10:54N 47°17' W 122°25'0 0.0
2017-Nov-10 10:24N 47°17' W 122°25'0 0.1
2017-Nov-10 09:58N 47°17' W 122°25'0 0.0
2017-Nov-10 09:31N 47°17' W 122°25'0 0.1
2017-Nov-10 09:00N 47°17' W 122°25'0 0.0
2017-Nov-10 08:30N 47°17' W 122°25'0 0.1
2017-Nov-10 08:01N 47°17' W 122°25'0 0.0
2017-Nov-10 07:30N 47°17' W 122°25'0 0.0
2017-Nov-10 07:00N 47°17' W 122°25'0 0.0
2017-Nov-10 06:30N 47°17' W 122°25'1 2.0
2017-Nov-10 06:00N 47°17' W 122°26'1 2.3
2017-Nov-10 05:30N 47°18' W 122°27'3 5.2
2017-Nov-10 05:00N 47°20' W 122°27'3 6.0
2017-Nov-10 04:30N 47°22' W 122°23'2 4.5
2017-Nov-10 04:00N 47°25' W 122°23'3 5.9
2017-Nov-10 03:30N 47°27' W 122°25'3 5.9
2017-Nov-10 03:00N 47°30' W 122°26'3 6.1
2017-Nov-10 02:30N 47°33' W 122°27'3 5.4
2017-Nov-10 02:00N 47°35' W 122°25'3 5.1
2017-Nov-10 01:30N 47°36' W 122°21'1 2.1
2017-Nov-10 01:00N 47°35' W 122°21'0 0.1
2017-Nov-10 00:30N 47°35' W 122°21'0 0.0
2017-Nov-10 00:00N 47°35' W 122°21'0 0.0
2017-Nov-09 23:30N 47°35' W 122°21'0 0.0
2017-Nov-09 23:00N 47°35' W 122°21'0 0.0
2017-Nov-09 22:30N 47°35' W 122°21'0 0.0
2017-Nov-09 22:00N 47°35' W 122°21'0 0.0
2017-Nov-09 21:30N 47°35' W 122°21'0 0.0
2017-Nov-09 21:00N 47°35' W 122°21'0 0.5
2017-Nov-09 20:26N 47°35' W 122°21'0 0.0
2017-Nov-09 18:42N 47°35' W 122°21'0 0.0
2017-Nov-09 17:39N 47°35' W 122°21'0 1.8
2017-Nov-09 17:30N 47°35' W 122°21'1 2.2
2017-Nov-09 17:00N 47°34' W 122°21'0 0.0
2017-Nov-09 16:30N 47°34' W 122°21'0 0.9
2017-Nov-09 16:00N 47°35' W 122°21'1 1.0
2017-Nov-09 15:30N 47°35' W 122°21'0 0.0
2017-Nov-09 15:00N 47°35' W 122°21'0 0.0
2017-Nov-09 14:30N 47°35' W 122°21'0 0.0
2017-Nov-09 14:00N 47°35' W 122°21'0 0.0
2017-Nov-09 13:30N 47°35' W 122°21'0 0.0
2017-Nov-09 13:00N 47°35' W 122°21'0 0.0
2017-Nov-09 12:30N 47°35' W 122°21'0 0.0
2017-Nov-09 12:00N 47°35' W 122°21'0 0.0
2017-Nov-09 11:30N 47°35' W 122°21'0 0.0
2017-Nov-09 11:00N 47°35' W 122°21'0 0.0
2017-Nov-09 10:30N 47°35' W 122°21'0 0.0
2017-Nov-09 10:00N 47°35' W 122°21'0 0.0
2017-Nov-09 09:30N 47°35' W 122°21'0 0.0
2017-Nov-09 09:00N 47°35' W 122°21'0 0.0
2017-Nov-09 08:30N 47°35' W 122°21'0 0.0
2017-Nov-09 08:00N 47°35' W 122°21'0 0.0
2017-Nov-09 07:30N 47°35' W 122°21'0 0.0
2017-Nov-09 07:00N 47°35' W 122°21'0 0.0
2017-Nov-09 06:29N 47°35' W 122°21'0 0.0
2017-Nov-09 05:59N 47°35' W 122°21'0 0.0
2017-Nov-09 05:29N 47°35' W 122°21'0 0.0
2017-Nov-09 04:57N 47°35' W 122°21'0 0.0
2017-Nov-09 04:30N 47°35' W 122°21'0 0.0
2017-Nov-09 03:59N 47°35' W 122°21'0 0.0
2017-Nov-09 03:30N 47°35' W 122°21'0 0.0
2017-Nov-09 03:00N 47°35' W 122°21'0 0.0
2017-Nov-09 02:30N 47°35' W 122°21'1 1.6
2017-Nov-09 02:01N 47°36' W 122°21'1 2.3
2017-Nov-09 01:30N 47°36' W 122°23'3 6.4
2017-Nov-09 01:00N 47°34' W 122°26'4 7.2
2017-Nov-09 00:30N 47°30' W 122°25'4 7.3
2017-Nov-09 00:00N 47°27' W 122°23'4 7.6
2017-Nov-08 23:30N 47°23' W 122°21'4 7.3
2017-Nov-08 23:00N 47°21' W 122°24'3 6.8
2017-Nov-08 22:30N 47°18' W 122°27'2 4.3
2017-Nov-08 22:00N 47°16' W 122°25'0 0.1
2017-Nov-08 18:47N 47°16' W 122°25'0 0.0
2017-Nov-08 17:36N 47°16' W 122°25'0 0.0
2017-Nov-08 17:12N 47°16' W 122°25'0 0.0
2017-Nov-08 16:58N 47°16' W 122°25'0 0.0
2017-Nov-08 16:28N 47°16' W 122°25'0 0.0
2017-Nov-08 15:59N 47°16' W 122°25'0 0.0
2017-Nov-08 15:29N 47°16' W 122°25'0 0.0
2017-Nov-08 14:57N 47°16' W 122°25'0 0.0
2017-Nov-08 14:30N 47°16' W 122°25'1 1.9
2017-Nov-08 14:00N 47°16' W 122°23'1 0.8
2017-Nov-08 13:20N 47°16' W 122°23'0 0.1
2017-Nov-08 13:00N 47°16' W 122°23'2 4.2
2017-Nov-08 12:30N 47°17' W 122°25'1 1.0
2017-Nov-08 11:38N 47°16' W 122°25'0 0.0
2017-Nov-08 11:14N 47°16' W 122°25'0 0.0
2017-Nov-08 08:02N 47°16' W 122°25'0 0.0
2017-Nov-08 07:56N 47°16' W 122°25'0 0.0
2017-Nov-08 07:26N 47°16' W 122°25'0 0.0
2017-Nov-08 06:59N 47°16' W 122°25'0 0.0
2017-Nov-08 02:11N 47°16' W 122°25'0 0.0
2017-Nov-08 01:59N 47°16' W 122°25'0 0.0
2017-Nov-08 01:23N 47°16' W 122°25'0 0.0
2017-Nov-08 00:50N 47°16' W 122°25'0 0.0
2017-Nov-08 00:29N 47°16' W 122°25'0 0.0
2017-Nov-07 23:56N 47°16' W 122°25'0 0.0
2017-Nov-07 23:29N 47°16' W 122°25'0 0.0
2017-Nov-07 22:56N 47°16' W 122°25'  
Track history (hours):
 
Tides and Currents Weather Stations Pressure Air Temp Water Temp Dewpoint Dewpoint Depression Visibility Wind Speed Wind Dir Waves Ship Positions

Olympic Scout

Owner: Harley Marine Services, Inc., Seattle, WA. More information available from US FCC via Universal Licensing System and Coast Guard Vessel Documentation Center.

Last reported at 2017-Nov-17 22:48 UTC. Time now 2017-Nov-17 23:14 UTC.
Position N 47°16' W 122°24'.

Length 31 m; draft 0.3 m.

Type: Tug. MMSI: 366998440.

Date/timePositionNaut miles runAvg speedWind from/ knotsBaromVisibWave heightAir tempDewpointWater temp
2017-Nov-17 22:48N 47°16' W 122°24'1 1.7
2017-Nov-17 22:25N 47°17' W 122°25'0 0.0
2017-Nov-17 13:39N 47°17' W 122°24'0 2.4
2017-Nov-17 13:30N 47°17' W 122°25'0 0.7
2017-Nov-17 12:58N 47°17' W 122°25'0 0.1
2017-Nov-17 12:28N 47°17' W 122°25'0 0.1
2017-Nov-17 11:58N 47°17' W 122°25'0 0.0
2017-Nov-17 11:28N 47°17' W 122°25'0 0.0
2017-Nov-17 10:58N 47°17' W 122°25'0 0.0
2017-Nov-17 10:25N 47°17' W 122°25'0 0.0
2017-Nov-17 09:58N 47°17' W 122°25'0 0.0
2017-Nov-17 09:28N 47°17' W 122°25'0 0.0
2017-Nov-17 08:55N 47°17' W 122°25'0 0.0
2017-Nov-17 08:22N 47°17' W 122°25'0 0.0
2017-Nov-17 07:55N 47°17' W 122°25'0 0.0
2017-Nov-17 07:25N 47°17' W 122°25'0 0.0
2017-Nov-17 06:49N 47°17' W 122°25'0 0.0
2017-Nov-17 06:25N 47°17' W 122°25'0 0.0
2017-Nov-17 05:43N 47°17' W 122°25'0 0.0
2017-Nov-17 05:25N 47°17' W 122°25'0 0.0
2017-Nov-17 04:58N 47°17' W 122°25'0 0.0
2017-Nov-17 04:25N 47°17' W 122°25'0 0.9
2017-Nov-17 04:00N 47°17' W 122°25'1 1.8
2017-Nov-17 03:29N 47°17' W 122°26'2 4.3
2017-Nov-17 03:00N 47°19' W 122°28'3 5.2
2017-Nov-17 02:30N 47°21' W 122°25'3 5.1
2017-Nov-17 02:00N 47°23' W 122°22'2 4.5
2017-Nov-17 01:30N 47°25' W 122°23'3 5.7
2017-Nov-17 01:00N 47°28' W 122°25'3 5.6
2017-Nov-17 00:30N 47°30' W 122°26'3 5.6
2017-Nov-17 00:00N 47°33' W 122°27'3 5.3
2017-Nov-16 23:30N 47°36' W 122°28'3 5.4
2017-Nov-16 23:00N 47°38' W 122°28'3 5.3
2017-Nov-16 22:30N 47°41' W 122°28'3 5.4
2017-Nov-16 22:00N 47°44' W 122°28'3 5.7
2017-Nov-16 21:30N 47°46' W 122°27'3 5.7
2017-Nov-16 21:00N 47°49' W 122°28'3 5.8
2017-Nov-16 20:30N 47°52' W 122°29'3 5.7
2017-Nov-16 20:00N 47°55' W 122°30'3 6.4
2017-Nov-16 19:30N 47°57' W 122°34'26 4.6
2017-Nov-16 13:51N 48°21' W 122°46'2 5.6
2017-Nov-16 13:30N 48°23' W 122°46'3 5.8
2017-Nov-16 12:59N 48°26' W 122°45'2 5.1
2017-Nov-16 12:30N 48°29' W 122°45'2 4.4
2017-Nov-16 12:00N 48°31' W 122°45'2 4.4
2017-Nov-16 11:30N 48°33' W 122°45'2 3.5
2017-Nov-16 11:00N 48°35' W 122°45'1 2.9
2017-Nov-16 10:30N 48°36' W 122°46'2 3.5
2017-Nov-16 10:00N 48°38' W 122°45'2 3.7
2017-Nov-16 09:30N 48°39' W 122°44'2 3.4
2017-Nov-16 09:00N 48°41' W 122°44'2 4.2
2017-Nov-16 08:25N 48°43' W 122°46'3 4.6
2017-Nov-16 07:43N 48°47' W 122°45'1 0.1
2017-Nov-15 21:00N 48°48' W 122°45'4 8.3
2017-Nov-15 20:28N 48°43' W 122°44'4 8.4
2017-Nov-15 20:00N 48°40' W 122°41'4 7.8
2017-Nov-15 19:30N 48°37' W 122°37'4 8.7
2017-Nov-15 19:00N 48°33' W 122°34'2 3.5
2017-Nov-15 18:30N 48°31' W 122°35'1 1.1
2017-Nov-15 17:51N 48°31' W 122°36'0 0.0
2017-Nov-15 17:29N 48°31' W 122°36'0 0.0
2017-Nov-15 16:59N 48°31' W 122°36'0 0.0
2017-Nov-15 16:29N 48°31' W 122°36'0 0.0
2017-Nov-15 15:59N 48°31' W 122°36'0 0.0
2017-Nov-15 15:29N 48°31' W 122°36'0 0.0
2017-Nov-15 14:59N 48°31' W 122°36'0 0.0
2017-Nov-15 14:29N 48°31' W 122°36'0 0.0
2017-Nov-15 13:59N 48°31' W 122°36'0 0.0
2017-Nov-15 13:29N 48°31' W 122°36'0 0.0
2017-Nov-15 12:59N 48°31' W 122°36'0 0.0
2017-Nov-15 12:29N 48°31' W 122°36'0 0.0
2017-Nov-15 11:59N 48°31' W 122°36'0 0.0
2017-Nov-15 11:29N 48°31' W 122°36'0 0.0
2017-Nov-15 10:59N 48°31' W 122°36'0 0.0
2017-Nov-15 10:23N 48°31' W 122°36'0 0.0
2017-Nov-15 09:59N 48°31' W 122°36'0 0.0
2017-Nov-15 09:29N 48°31' W 122°36'0 0.0
2017-Nov-15 08:59N 48°31' W 122°36'0 0.0
2017-Nov-15 08:29N 48°31' W 122°36'0 0.0
2017-Nov-15 07:47N 48°31' W 122°36'0 0.0
2017-Nov-15 07:29N 48°31' W 122°36'0 0.0
2017-Nov-15 06:59N 48°31' W 122°36'0 0.0
2017-Nov-15 06:29N 48°31' W 122°36'0 0.0
2017-Nov-15 05:59N 48°31' W 122°36'0 0.0
2017-Nov-15 05:29N 48°31' W 122°36'0 0.0
2017-Nov-15 04:59N 48°31' W 122°36'0 0.0
2017-Nov-15 04:29N 48°31' W 122°36'0 0.0
2017-Nov-15 03:59N 48°31' W 122°36'0 0.0
2017-Nov-15 03:29N 48°31' W 122°36'0 0.0
2017-Nov-15 02:59N 48°31' W 122°36'0 0.0
2017-Nov-15 02:29N 48°31' W 122°36'0 0.0
2017-Nov-15 01:59N 48°31' W 122°36'0 0.0
2017-Nov-15 01:29N 48°31' W 122°36'0 0.0
2017-Nov-15 00:53N 48°31' W 122°36'0 0.0
2017-Nov-15 00:29N 48°31' W 122°36'0 0.0
2017-Nov-14 23:59N 48°31' W 122°36'0 0.0
2017-Nov-14 23:29N 48°31' W 122°36'0 0.0
2017-Nov-14 22:52N 48°31' W 122°36'0 0.0
2017-Nov-14 22:23N 48°31' W 122°36'0 0.0
2017-Nov-14 21:59N 48°31' W 122°36'0 0.0
2017-Nov-14 21:29N 48°31' W 122°36'0 0.0
2017-Nov-14 20:59N 48°31' W 122°36'0 0.0
2017-Nov-14 20:29N 48°31' W 122°36'0 0.0
2017-Nov-14 19:47N 48°31' W 122°36'0 0.0
2017-Nov-14 19:29N 48°31' W 122°36'0 0.0
2017-Nov-14 18:58N 48°31' W 122°36'0 0.0
2017-Nov-14 18:16N 48°31' W 122°36'0 0.0
2017-Nov-14 17:59N 48°31' W 122°36'0 0.0
2017-Nov-14 17:29N 48°31' W 122°36'0 0.4
2017-Nov-14 16:59N 48°32' W 122°36'1 1.5
2017-Nov-14 16:30N 48°31' W 122°37'2 3.6
2017-Nov-14 16:01N 48°31' W 122°40'2 4.8
2017-Nov-14 15:30N 48°31' W 122°36'0 0.0
2017-Nov-14 15:00N 48°31' W 122°36'0 0.0
2017-Nov-14 14:30N 48°31' W 122°36'0 0.0
2017-Nov-14 14:00N 48°31' W 122°36'0 0.0
2017-Nov-14 13:30N 48°31' W 122°36'0 0.0
2017-Nov-14 13:00N 48°31' W 122°36'0 0.0
2017-Nov-14 12:30N 48°31' W 122°36'0 0.0
2017-Nov-14 11:42N 48°31' W 122°36'0 0.0
2017-Nov-14 11:30N 48°31' W 122°36'0 0.0
2017-Nov-14 11:00N 48°31' W 122°36'0 0.0
2017-Nov-14 10:12N 48°31' W 122°36'0 0.0
2017-Nov-14 10:00N 48°31' W 122°36'0 0.0
2017-Nov-14 09:30N 48°31' W 122°36'0 0.0
2017-Nov-14 09:00N 48°31' W 122°36'0 0.0
2017-Nov-14 08:30N 48°31' W 122°36'0 0.0
2017-Nov-14 08:00N 48°31' W 122°36'0 0.0
2017-Nov-14 07:30N 48°31' W 122°36'0 0.0
2017-Nov-14 07:00N 48°31' W 122°36'0 0.0
2017-Nov-14 06:30N 48°31' W 122°36'0 0.0
2017-Nov-14 06:00N 48°31' W 122°36'0 0.0
2017-Nov-14 05:30N 48°31' W 122°36'0 0.0
2017-Nov-14 05:00N 48°31' W 122°36'0 0.0
2017-Nov-14 04:30N 48°31' W 122°36'0 0.0
2017-Nov-14 04:00N 48°31' W 122°36'0 0.0
2017-Nov-14 03:24N 48°31' W 122°36'0 0.0
2017-Nov-14 03:00N 48°31' W 122°36'0 0.0
2017-Nov-14 02:30N 48°31' W 122°36'0 0.0
2017-Nov-14 02:00N 48°31' W 122°36'0 0.0
2017-Nov-14 01:30N 48°31' W 122°36'0 0.0
2017-Nov-14 01:00N 48°31' W 122°36'0 0.0
2017-Nov-14 00:30N 48°31' W 122°36'0 0.0
2017-Nov-14 00:00N 48°31' W 122°36'0 0.0
2017-Nov-13 23:30N 48°31' W 122°36'0 0.0
2017-Nov-13 23:00N 48°31' W 122°36'0 0.0
2017-Nov-13 22:30N 48°31' W 122°36'0 0.0
2017-Nov-13 22:00N 48°31' W 122°36'66 3.3
2017-Nov-13 02:01N 47°26' W 122°23'4 7.2
2017-Nov-13 01:30N 47°23' W 122°21'4 7.1
2017-Nov-13 01:00N 47°20' W 122°24'3 6.3
2017-Nov-13 00:30N 47°18' W 122°27'2 2.9
2017-Nov-12 23:56N 47°17' W 122°25'0 0.1
2017-Nov-12 23:14N 47°17' W 122°25'0 0.0
2017-Nov-12 22:59N 47°17' W 122°25'0 0.0
2017-Nov-12 22:29N 47°17' W 122°25'0 0.0
2017-Nov-12 21:56N 47°17' W 122°25'0 0.0
2017-Nov-12 21:29N 47°17' W 122°25'0 0.1
2017-Nov-12 20:59N 47°17' W 122°25'0 0.0
2017-Nov-12 20:29N 47°17' W 122°25'0 0.1
2017-Nov-12 19:59N 47°17' W 122°25'0 0.0
2017-Nov-12 19:29N 47°17' W 122°25'0 0.0
2017-Nov-12 18:56N 47°17' W 122°25'0 0.0
2017-Nov-12 18:29N 47°17' W 122°25'0 0.1
2017-Nov-12 17:59N 47°17' W 122°25'0 0.0
2017-Nov-12 17:26N 47°17' W 122°25'1 2.6
2017-Nov-12 17:00N 47°17' W 122°26'3 5.1
2017-Nov-12 16:30N 47°20' W 122°28'3 6.6
2017-Nov-12 16:00N 47°22' W 122°24'3 5.5
2017-Nov-12 15:30N 47°24' W 122°23'3 6.4
2017-Nov-12 15:00N 47°27' W 122°25'3 6.4
2017-Nov-12 14:30N 47°30' W 122°26'3 6.3
2017-Nov-12 14:00N 47°33' W 122°27'3 6.3
2017-Nov-12 13:30N 47°36' W 122°24'2 4.2
2017-Nov-12 13:00N 47°36' W 122°21'0 0.5
2017-Nov-12 12:30N 47°35' W 122°21'1 1.7
2017-Nov-12 11:59N 47°34' W 122°21'1 1.7
2017-Nov-12 11:28N 47°35' W 122°21'0 0.0
2017-Nov-12 10:58N 47°35' W 122°21'0 0.0
2017-Nov-12 10:28N 47°35' W 122°21'0 0.0
2017-Nov-12 09:59N 47°35' W 122°21'0 0.0
2017-Nov-12 09:29N 47°35' W 122°21'0 0.0
2017-Nov-12 08:59N 47°35' W 122°21'0 0.0
2017-Nov-12 08:28N 47°35' W 122°21'0 0.0
2017-Nov-12 07:58N 47°35' W 122°21'0 0.0
2017-Nov-12 07:28N 47°35' W 122°21'0 0.1
2017-Nov-12 06:59N 47°35' W 122°21'0 0.6
2017-Nov-12 06:30N 47°36' W 122°21'1 2.3
2017-Nov-12 06:00N 47°35' W 122°21'0 0.3
2017-Nov-12 05:28N 47°34' W 122°21'0 0.0
2017-Nov-12 04:59N 47°34' W 122°21'0 0.0
2017-Nov-12 04:29N 47°34' W 122°21'0 0.0
2017-Nov-12 03:58N 47°34' W 122°21'0 0.0
2017-Nov-12 03:29N 47°34' W 122°21'0 0.0
2017-Nov-12 02:59N 47°34' W 122°21'0 0.0
2017-Nov-12 02:29N 47°34' W 122°21'0 0.0
2017-Nov-12 01:59N 47°34' W 122°21'0 0.0
2017-Nov-12 01:29N 47°34' W 122°21'0 0.0
2017-Nov-12 00:59N 47°34' W 122°21'0 0.0
2017-Nov-12 00:29N 47°34' W 122°21'0 0.0
2017-Nov-11 23:55N 47°34' W 122°21'0 0.0
2017-Nov-11 23:29N 47°34' W 122°21'0 0.0
2017-Nov-11 22:59N 47°34' W 122°21'0 0.0
2017-Nov-11 22:29N 47°34' W 122°21'0 0.0
2017-Nov-11 21:59N 47°34' W 122°21'0 0.0
2017-Nov-11 21:25N 47°34' W 122°21'0 0.0
2017-Nov-11 20:59N 47°34' W 122°21'0 0.1
2017-Nov-11 20:26N 47°34' W 122°21'1 1.2
2017-Nov-11 20:00N 47°35' W 122°21'0 0.0
2017-Nov-11 19:29N 47°35' W 122°21'0 0.0
2017-Nov-11 18:59N 47°35' W 122°21'0 0.0
2017-Nov-11 18:29N 47°35' W 122°21'0 0.0
2017-Nov-11 18:00N 47°35' W 122°21'0 0.0
2017-Nov-11 17:29N 47°35' W 122°21'0 0.0
2017-Nov-11 16:57N 47°35' W 122°21'0 0.0
2017-Nov-11 16:29N 47°35' W 122°21'0 0.0
2017-Nov-11 15:59N 47°35' W 122°21'0 0.0
2017-Nov-11 15:29N 47°35' W 122°21'0 0.0
2017-Nov-11 14:59N 47°35' W 122°21'0 0.0
2017-Nov-11 14:29N 47°35' W 122°21'0 0.0
2017-Nov-11 13:59N 47°35' W 122°21'0 0.0
2017-Nov-11 13:29N 47°35' W 122°21'0 0.0
2017-Nov-11 13:00N 47°35' W 122°21'0 0.1
2017-Nov-11 12:30N 47°35' W 122°21'0 0.1
2017-Nov-11 11:59N 47°35' W 122°21'0 0.0
2017-Nov-11 11:29N 47°35' W 122°21'0 0.0
2017-Nov-11 11:00N 47°35' W 122°21'0 0.0
2017-Nov-11 10:30N 47°35' W 122°21'0 0.0
2017-Nov-11 09:59N 47°35' W 122°21'0 0.0
2017-Nov-11 09:29N 47°35' W 122°21'0 0.0
2017-Nov-11 08:59N 47°35' W 122°21'0 0.0
2017-Nov-11 08:29N 47°35' W 122°21'0 0.0
2017-Nov-11 07:59N 47°35' W 122°21'0 0.0
2017-Nov-11 07:30N 47°35' W 122°21'0 0.0
2017-Nov-11 06:56N 47°35' W 122°21'0 0.0
2017-Nov-11 06:30N 47°35' W 122°21'0 0.0
2017-Nov-11 06:00N 47°35' W 122°21'0 0.0
2017-Nov-11 05:29N 47°35' W 122°21'0 0.0
2017-Nov-11 04:59N 47°35' W 122°21'0 0.0
2017-Nov-11 04:29N 47°35' W 122°21'0 0.0
2017-Nov-11 03:59N 47°35' W 122°21'0 0.0
2017-Nov-11 03:29N 47°35' W 122°21'0 0.0
2017-Nov-11 02:59N 47°35' W 122°21'0 0.0
2017-Nov-11 02:29N 47°35' W 122°21'0 0.0
2017-Nov-11 01:59N 47°35' W 122°21'0 0.0
2017-Nov-11 01:29N 47°35' W 122°21'0 0.0
2017-Nov-11 00:59N 47°35' W 122°21'0 0.0
2017-Nov-11 00:30N 47°35' W 122°21'0 0.0
2017-Nov-10 23:59N 47°35' W 122°21'0 0.0
2017-Nov-10 23:26N 47°35' W 122°21'0 0.0
2017-Nov-10 22:59N 47°35' W 122°21'0 0.0
2017-Nov-10 22:29N 47°35' W 122°21'0 0.0
2017-Nov-10 22:00N 47°35' W 122°21'0 0.0
2017-Nov-10 21:29N 47°35' W 122°21'0 0.0
2017-Nov-10 21:00N 47°35' W 122°21'0 0.0
2017-Nov-10 20:30N 47°35' W 122°21'1 1.5
2017-Nov-10 20:00N 47°36' W 122°21'2 4.5
2017-Nov-10 19:30N 47°36' W 122°24'3 6.0
2017-Nov-10 19:00N 47°33' W 122°26'3 6.7
2017-Nov-10 18:30N 47°30' W 122°25'3 6.5
2017-Nov-10 18:00N 47°27' W 122°24'3 6.5
2017-Nov-10 17:30N 47°24' W 122°21'3 5.4
2017-Nov-10 17:00N 47°21' W 122°23'3 6.4
2017-Nov-10 16:30N 47°19' W 122°27'2 4.8
2017-Nov-10 16:00N 47°17' W 122°26'1 0.7
2017-Nov-10 15:01N 47°17' W 122°25'0 0.2
2017-Nov-10 14:49N 47°17' W 122°25'0 0.1
2017-Nov-10 14:25N 47°17' W 122°25'0 0.0
2017-Nov-10 14:00N 47°17' W 122°25'0 0.0
2017-Nov-10 13:21N 47°17' W 122°25'0 0.1
2017-Nov-10 12:58N 47°17' W 122°25'0 0.1
2017-Nov-10 12:31N 47°17' W 122°25'0 0.1
2017-Nov-10 11:58N 47°17' W 122°25'0 0.1
2017-Nov-10 11:28N 47°17' W 122°25'0 0.0
2017-Nov-10 10:54N 47°17' W 122°25'0 0.0
2017-Nov-10 10:24N 47°17' W 122°25'0 0.1
2017-Nov-10 09:58N 47°17' W 122°25'0 0.0
2017-Nov-10 09:31N 47°17' W 122°25'0 0.1
2017-Nov-10 09:00N 47°17' W 122°25'0 0.0
2017-Nov-10 08:30N 47°17' W 122°25'0 0.1
2017-Nov-10 08:01N 47°17' W 122°25'0 0.0
2017-Nov-10 07:30N 47°17' W 122°25'0 0.0
2017-Nov-10 07:00N 47°17' W 122°25'0 0.0
2017-Nov-10 06:30N 47°17' W 122°25'1 2.0
2017-Nov-10 06:00N 47°17' W 122°26'1 2.3
2017-Nov-10 05:30N 47°18' W 122°27'3 5.2
2017-Nov-10 05:00N 47°20' W 122°27'3 6.0
2017-Nov-10 04:30N 47°22' W 122°23'2 4.5
2017-Nov-10 04:00N 47°25' W 122°23'3 5.9
2017-Nov-10 03:30N 47°27' W 122°25'3 5.9
2017-Nov-10 03:00N 47°30' W 122°26'3 6.1
2017-Nov-10 02:30N 47°33' W 122°27'3 5.4
2017-Nov-10 02:00N 47°35' W 122°25'3 5.1
2017-Nov-10 01:30N 47°36' W 122°21'1 2.1
2017-Nov-10 01:00N 47°35' W 122°21'0 0.1
2017-Nov-10 00:30N 47°35' W 122°21'0 0.0
2017-Nov-10 00:00N 47°35' W 122°21'0 0.0
2017-Nov-09 23:30N 47°35' W 122°21'0 0.0
2017-Nov-09 23:00N 47°35' W 122°21'0 0.0
2017-Nov-09 22:30N 47°35' W 122°21'0 0.0
2017-Nov-09 22:00N 47°35' W 122°21'0 0.0
2017-Nov-09 21:30N 47°35' W 122°21'0 0.0
2017-Nov-09 21:00N 47°35' W 122°21'0 0.5
2017-Nov-09 20:26N 47°35' W 122°21'0 0.0
2017-Nov-09 18:42N 47°35' W 122°21'0 0.0
2017-Nov-09 17:39N 47°35' W 122°21'0 1.8
2017-Nov-09 17:30N 47°35' W 122°21'1 2.2
2017-Nov-09 17:00N 47°34' W 122°21'0 0.0
2017-Nov-09 16:30N 47°34' W 122°21'0 0.9
2017-Nov-09 16:00N 47°35' W 122°21'1 1.0
2017-Nov-09 15:30N 47°35' W 122°21'0 0.0
2017-Nov-09 15:00N 47°35' W 122°21'0 0.0
2017-Nov-09 14:30N 47°35' W 122°21'0 0.0
2017-Nov-09 14:00N 47°35' W 122°21'0 0.0
2017-Nov-09 13:30N 47°35' W 122°21'0 0.0
2017-Nov-09 13:00N 47°35' W 122°21'0 0.0
2017-Nov-09 12:30N 47°35' W 122°21'0 0.0
2017-Nov-09 12:00N 47°35' W 122°21'0 0.0
2017-Nov-09 11:30N 47°35' W 122°21'0 0.0
2017-Nov-09 11:00N 47°35' W 122°21'0 0.0
2017-Nov-09 10:30N 47°35' W 122°21'0 0.0
2017-Nov-09 10:00N 47°35' W 122°21'0 0.0
2017-Nov-09 09:30N 47°35' W 122°21'0 0.0
2017-Nov-09 09:00N 47°35' W 122°21'0 0.0
2017-Nov-09 08:30N 47°35' W 122°21'0 0.0
2017-Nov-09 08:00N 47°35' W 122°21'0 0.0
2017-Nov-09 07:30N 47°35' W 122°21'0 0.0
2017-Nov-09 07:00N 47°35' W 122°21'0 0.0
2017-Nov-09 06:29N 47°35' W 122°21'0 0.0
2017-Nov-09 05:59N 47°35' W 122°21'0 0.0
2017-Nov-09 05:29N 47°35' W 122°21'0 0.0
2017-Nov-09 04:57N 47°35' W 122°21'0 0.0
2017-Nov-09 04:30N 47°35' W 122°21'0 0.0
2017-Nov-09 03:59N 47°35' W 122°21'0 0.0
2017-Nov-09 03:30N 47°35' W 122°21'0 0.0
2017-Nov-09 03:00N 47°35' W 122°21'0 0.0
2017-Nov-09 02:30N 47°35' W 122°21'1 1.6
2017-Nov-09 02:01N 47°36' W 122°21'1 2.3
2017-Nov-09 01:30N 47°36' W 122°23'3 6.4
2017-Nov-09 01:00N 47°34' W 122°26'4 7.2
2017-Nov-09 00:30N 47°30' W 122°25'4 7.3
2017-Nov-09 00:00N 47°27' W 122°23'4 7.6
2017-Nov-08 23:30N 47°23' W 122°21'4 7.3
2017-Nov-08 23:00N 47°21' W 122°24'3 6.8
2017-Nov-08 22:30N 47°18' W 122°27'2 4.3
2017-Nov-08 22:00N 47°16' W 122°25'0 0.1
2017-Nov-08 18:47N 47°16' W 122°25'0 0.0
2017-Nov-08 17:36N 47°16' W 122°25'0 0.0
2017-Nov-08 17:12N 47°16' W 122°25'0 0.0
2017-Nov-08 16:58N 47°16' W 122°25'0 0.0
2017-Nov-08 16:28N 47°16' W 122°25'0 0.0
2017-Nov-08 15:59N 47°16' W 122°25'0 0.0
2017-Nov-08 15:29N 47°16' W 122°25'0 0.0
2017-Nov-08 14:57N 47°16' W 122°25'0 0.0
2017-Nov-08 14:30N 47°16' W 122°25'1 1.9
2017-Nov-08 14:00N 47°16' W 122°23'1 0.8
2017-Nov-08 13:20N 47°16' W 122°23'0 0.1
2017-Nov-08 13:00N 47°16' W 122°23'2 4.2
2017-Nov-08 12:30N 47°17' W 122°25'1 1.0
2017-Nov-08 11:38N 47°16' W 122°25'0 0.0
2017-Nov-08 11:14N 47°16' W 122°25'0 0.0
2017-Nov-08 08:02N 47°16' W 122°25'0 0.0
2017-Nov-08 07:56N 47°16' W 122°25'0 0.0
2017-Nov-08 07:26N 47°16' W 122°25'0 0.0
2017-Nov-08 06:59N 47°16' W 122°25'0 0.0
2017-Nov-08 02:11N 47°16' W 122°25'0 0.0
2017-Nov-08 01:59N 47°16' W 122°25'0 0.0
2017-Nov-08 01:23N 47°16' W 122°25'0 0.0
2017-Nov-08 00:50N 47°16' W 122°25'0 0.0
2017-Nov-08 00:29N 47°16' W 122°25'0 0.0
2017-Nov-07 23:56N 47°16' W 122°25'0 0.0
2017-Nov-07 23:29N 47°16' W 122°25'0 0.0
2017-Nov-07 22:56N 47°16' W 122°25'  

Dump ship's entire track history